KCGZ/CGZ METAR and TAF weather

Enter ICAO airport designator
Station Type Date Time Source
KCGZ METAR 2018/06/25 01:56 UTC NOAA

KCGZ 250156Z AUTO 29013KT 10SM CLR 38/07 A2978 RMK AO2 SLP064 T03780072 PNO $


Station Type Date Time Source
KCGZ Decoded METAR 2018/06/25 01:56 UTC NOAA

Casa Grande, Casa Grande Municipal Airport, AZ, United States (KCGZ) 32-57N 111-46W
Jun 24, 2018 - 09:56 PM EDT / 2018.06.25 0156 UTC
Wind: from the WNW (290 degrees) at 15 MPH (13 KT):0
Visibility: 10 mile(s):0
Sky conditions: clear
Temperature: 100.0 F (37.8 C)
Dew Point: 45.0 F (7.2 C)
Relative Humidity: 15%
Pressure (altimeter): 29.78 in. Hg (1008 hPa)
ob: KCGZ 250156Z AUTO 29013KT 10SM CLR 38/07 A2978 RMK AO2 SLP064 T03780072 PNO
cycle: 2

Station Type Date Time Source
KCGZ TAF UTC NOAA

Error!


Example: see airport list